createdAt,value
2017-11-09T00:01:20.084Z,71.26
2017-11-09T00:03:53.820Z,72.24
2017-11-09T00:06:22.576Z,72.40
2017-11-09T00:08:51.725Z,72.82
2017-11-09T00:11:20.361Z,72.83
2017-11-09T00:13:49.510Z,72.63
2017-11-09T00:16:18.577Z,72.09
2017-11-09T00:18:47.680Z,72.12
2017-11-09T00:21:16.943Z,71.58
2017-11-09T00:23:46.251Z,71.24
2017-11-09T00:26:14.611Z,70.95
2017-11-09T00:28:43.092Z,71.08
2017-11-09T00:31:12.368Z,70.95
2017-11-09T00:33:40.903Z,70.29
2017-11-09T00:36:09.320Z,70.24
2017-11-09T00:38:37.674Z,70.65
2017-11-09T00:41:06.830Z,71.58
2017-11-09T00:43:35.392Z,71.52
2017-11-09T00:46:05.257Z,71.53
2017-11-09T00:48:33.608Z,70.94
2017-11-09T00:51:01.979Z,71.63
2017-11-09T00:53:31.147Z,71.04
2017-11-09T00:56:00.126Z,71.12
2017-11-09T00:58:29.779Z,71.39
2017-11-09T01:00:58.171Z,71.28
2017-11-09T01:03:26.573Z,71.46
2017-11-09T01:05:55.532Z,70.94
2017-11-09T01:08:24.513Z,70.52
2017-11-09T01:10:52.872Z,70.08
2017-11-09T01:13:21.969Z,69.57
2017-11-09T01:15:51.919Z,69.32
2017-11-09T01:18:20.504Z,69.44
2017-11-09T01:20:49.631Z,69.83
2017-11-09T01:23:17.978Z,70.49
2017-11-09T01:25:47.155Z,71.79
2017-11-09T01:28:15.700Z,72.07
2017-11-09T01:30:44.068Z,71.90
2017-11-09T01:33:15.929Z,71.33
2017-11-09T01:35:44.315Z,72.51
2017-11-09T01:38:12.881Z,73.67
2017-11-09T01:40:41.229Z,74.56
2017-11-09T01:43:09.829Z,74.35
2017-11-09T01:45:39.887Z,73.45
2017-11-09T01:48:08.235Z,72.58
2017-11-09T01:50:37.606Z,72.52
2017-11-09T01:53:05.968Z,72.76
2017-11-09T01:55:36.385Z,73.12
2017-11-09T01:58:04.764Z,73.47
2017-11-09T02:00:33.892Z,73.56
2017-11-09T02:03:02.252Z,73.11
2017-11-09T02:05:30.962Z,73.18
2017-11-09T02:07:59.303Z,73.44
2017-11-09T02:10:27.648Z,73.12
2017-11-09T02:12:57.551Z,72.75
2017-11-09T02:15:25.911Z,72.03
2017-11-09T02:17:56.184Z,71.81
2017-11-09T02:20:24.579Z,70.78
2017-11-09T02:22:54.386Z,70.82
2017-11-09T02:25:22.742Z,70.93
2017-11-09T02:27:51.925Z,71.14
2017-11-09T02:30:20.492Z,71.63
2017-11-09T02:32:49.065Z,72.28
2017-11-09T02:35:17.501Z,73.79
2017-11-09T02:37:45.859Z,74.25
2017-11-09T02:40:15.087Z,74.39
2017-11-09T02:42:44.264Z,73.65
2017-11-09T02:45:12.605Z,72.61
2017-11-09T02:47:40.955Z,72.85
2017-11-09T02:50:11.990Z,73.81
2017-11-09T02:52:40.370Z,73.54
2017-11-09T02:55:09.522Z,72.66
2017-11-09T02:57:38.076Z,72.47
2017-11-09T03:00:06.430Z,71.67
2017-11-09T03:02:36.718Z,71.15
2017-11-09T03:05:05.087Z,70.76
2017-11-09T03:07:33.463Z,70.83
2017-11-09T03:10:01.875Z,71.36
2017-11-09T03:12:30.307Z,71.00
2017-11-09T03:14:58.661Z,70.39
2017-11-09T03:17:28.333Z,70.88
2017-11-09T03:19:57.987Z,71.40
2017-11-09T03:22:26.336Z,71.55
2017-11-09T03:24:54.693Z,71.61
2017-11-09T03:27:23.070Z,71.19
2017-11-09T03:29:51.424Z,70.62
2017-11-09T03:32:19.773Z,70.46
2017-11-09T03:34:49.464Z,70.64
2017-11-09T03:37:19.276Z,70.91
2017-11-09T03:39:50.415Z,70.84
2017-11-09T03:42:18.791Z,70.93
2017-11-09T03:44:47.174Z,70.58
2017-11-09T03:47:15.561Z,70.55
2017-11-09T03:49:44.666Z,71.37
2017-11-09T03:52:14.669Z,71.89
2017-11-09T03:54:43.284Z,71.92
2017-11-09T03:57:12.483Z,72.10
2017-11-09T03:59:41.589Z,73.10
2017-11-09T04:02:11.155Z,72.96
2017-11-09T04:04:40.115Z,73.00
2017-11-09T04:07:08.551Z,73.24
2017-11-09T04:09:38.388Z,73.28
2017-11-09T04:12:06.755Z,73.46
2017-11-09T04:14:37.805Z,72.88
2017-11-09T04:17:07.159Z,72.91
2017-11-09T04:19:35.509Z,73.39
2017-11-09T04:22:03.866Z,73.23
2017-11-09T04:24:33.603Z,72.94
2017-11-09T04:27:01.955Z,73.31
2017-11-09T04:29:30.302Z,73.51
2017-11-09T04:31:58.671Z,73.35
2017-11-09T04:34:27.015Z,73.87
2017-11-09T04:36:55.402Z,74.54
2017-11-09T04:39:23.785Z,75.01
2017-11-09T04:41:52.140Z,74.14
2017-11-09T04:44:20.489Z,74.46
2017-11-09T04:46:49.700Z,74.53
2017-11-09T04:49:19.620Z,74.24
2017-11-09T04:51:47.953Z,73.67
2017-11-09T04:54:16.325Z,73.48
2017-11-09T04:56:45.584Z,73.91
2017-11-09T04:59:13.914Z,73.51
2017-11-09T05:01:44.237Z,73.50
2017-11-09T05:04:13.361Z,73.22
2017-11-09T05:06:42.489Z,73.81
2017-11-09T05:09:11.728Z,74.26
2017-11-09T05:11:40.083Z,74.42
2017-11-09T05:14:09.337Z,74.42
2017-11-09T05:16:38.168Z,74.71
2017-11-09T05:19:06.745Z,74.19
2017-11-09T05:21:35.097Z,74.66
2017-11-09T05:24:04.217Z,75.27
2017-11-09T05:26:32.558Z,75.79
2017-11-09T05:29:02.295Z,75.87
2017-11-09T05:31:31.407Z,75.78
2017-11-09T05:34:00.715Z,75.99
2017-11-09T05:36:29.058Z,76.02
2017-11-09T05:38:59.131Z,76.47
2017-11-09T05:41:27.590Z,76.37
2017-11-09T05:43:56.022Z,76.19
2017-11-09T05:46:24.416Z,76.30
2017-11-09T05:48:53.527Z,76.58
2017-11-09T05:51:21.889Z,76.26
2017-11-09T05:53:50.313Z,76.07
2017-11-09T05:56:18.646Z,75.74
2017-11-09T05:58:46.982Z,75.47
2017-11-09T06:01:15.366Z,76.18
2017-11-09T06:03:43.718Z,76.59
2017-11-09T06:06:12.071Z,77.13
2017-11-09T06:08:41.657Z,77.56
2017-11-09T06:11:09.995Z,76.97
2017-11-09T06:13:38.339Z,76.53
2017-11-09T06:16:07.030Z,76.73
2017-11-09T06:18:36.204Z,76.77
2017-11-09T06:21:05.411Z,76.41
2017-11-09T06:23:34.650Z,76.87
2017-11-09T06:26:03.278Z,77.50
2017-11-09T06:28:31.734Z,77.11
2017-11-09T06:31:00.233Z,77.76
2017-11-09T06:33:29.479Z,77.58
2017-11-09T06:35:58.321Z,77.76
2017-11-09T06:38:26.916Z,77.15
2017-11-09T06:40:56.046Z,76.77
2017-11-09T06:43:24.492Z,76.69
2017-11-09T06:45:52.909Z,75.43
2017-11-09T06:48:21.298Z,75.12
2017-11-09T06:50:49.802Z,75.43
2017-11-09T06:53:19.247Z,75.34
2017-11-09T06:55:48.546Z,75.63
2017-11-09T06:58:16.960Z,76.51
2017-11-09T07:00:45.734Z,77.02
2017-11-09T07:03:14.175Z,76.90
2017-11-09T07:05:42.538Z,76.88
2017-11-09T07:08:10.925Z,77.54
2017-11-09T07:10:39.336Z,76.93
2017-11-09T07:13:08.494Z,77.45
2017-11-09T07:15:37.630Z,75.87
2017-11-09T07:18:06.162Z,76.21
2017-11-09T07:20:35.453Z,77.47
2017-11-09T07:23:04.913Z,77.68
2017-11-09T07:25:33.298Z,77.42
2017-11-09T07:28:02.463Z,76.54
2017-11-09T07:30:30.996Z,76.95
2017-11-09T07:32:59.433Z,76.61
2017-11-09T07:35:28.751Z,76.60
2017-11-09T07:37:57.549Z,77.33
2017-11-09T07:40:26.697Z,77.95
2017-11-09T07:42:55.094Z,77.90
2017-11-09T07:45:23.678Z,77.25
2017-11-09T07:47:52.108Z,77.09
2017-11-09T07:50:20.564Z,77.17
2017-11-09T07:52:49.317Z,77.17
2017-11-09T07:55:17.796Z,77.03
2017-11-09T07:57:47.136Z,77.46
2017-11-09T08:00:16.107Z,76.40
2017-11-09T08:02:44.523Z,75.90
2017-11-09T08:05:14.019Z,76.05
2017-11-09T08:07:42.551Z,75.83
2017-11-09T08:10:10.883Z,76.08
2017-11-09T08:12:39.249Z,75.32
2017-11-09T08:15:07.626Z,76.30
2017-11-09T08:17:35.969Z,75.62
2017-11-09T08:20:06.002Z,75.59
2017-11-09T08:22:34.394Z,75.41
2017-11-09T08:25:06.687Z,74.73
2017-11-09T08:27:42.110Z,75.29
2017-11-09T08:30:13.451Z,75.34
2017-11-09T08:32:49.372Z,74.79
2017-11-09T08:35:17.728Z,77.29
2017-11-09T08:37:46.780Z,77.05
2017-11-09T08:40:15.154Z,75.67
2017-11-09T08:42:43.502Z,75.62
2017-11-09T08:45:12.275Z,75.82
2017-11-09T08:47:41.430Z,76.37
2017-11-09T08:50:09.772Z,76.18
2017-11-09T08:52:38.282Z,75.27
2017-11-09T08:55:06.781Z,75.25
2017-11-09T08:57:35.234Z,74.64
2017-11-09T09:00:03.592Z,75.27
2017-11-09T09:02:31.997Z,75.40
2017-11-09T09:05:00.340Z,75.91
2017-11-09T09:07:28.712Z,75.86
2017-11-09T09:09:57.918Z,75.80
2017-11-09T09:12:26.267Z,74.92
2017-11-09T09:14:56.215Z,75.03
2017-11-09T09:17:26.258Z,76.08
2017-11-09T09:19:55.227Z,76.41
2017-11-09T09:22:42.274Z,75.79
2017-11-09T09:25:21.222Z,75.80
2017-11-09T09:27:51.203Z,75.03
2017-11-09T09:30:33.695Z,75.50
2017-11-09T09:33:09.024Z,74.69
2017-11-09T09:35:41.876Z,75.89
2017-11-09T18:52:42.274Z,76.75
2017-11-09T18:55:10.769Z,76.66
2017-11-09T18:57:41.649Z,75.28
2017-11-09T19:00:10.579Z,75.77
2017-11-09T19:02:38.960Z,76.24
2017-11-09T19:05:07.356Z,76.10
2017-11-09T19:07:37.366Z,75.69
2017-11-09T19:10:06.555Z,75.94
2017-11-09T19:12:35.138Z,75.99
2017-11-09T19:15:03.676Z,76.51
2017-11-09T19:17:32.268Z,76.19
2017-11-09T19:20:01.568Z,76.13
2017-11-09T19:22:29.958Z,76.65
2017-11-09T19:24:58.320Z,77.76
2017-11-09T19:27:26.808Z,77.40
2017-11-09T19:29:55.424Z,78.09
2017-11-09T19:32:24.578Z,78.49
2017-11-09T19:34:52.926Z,78.77
2017-11-09T19:37:21.516Z,77.82
2017-11-09T19:39:51.340Z,78.52
2017-11-09T19:42:19.700Z,78.66
2017-11-09T19:44:48.945Z,78.39
2017-11-09T19:47:17.279Z,78.91
2017-11-09T19:49:46.407Z,78.53
2017-11-09T19:52:14.799Z,78.49
2017-11-09T19:54:43.975Z,79.71
2017-11-09T19:57:13.054Z,79.37
2017-11-09T19:59:42.316Z,79.16
2017-11-09T20:02:13.349Z,79.78
2017-11-09T20:04:41.722Z,79.77
2017-11-09T20:07:10.586Z,79.61
2017-11-09T20:09:38.964Z,79.13
2017-11-09T20:12:07.397Z,79.40
2017-11-09T20:14:35.790Z,78.76
2017-11-09T20:17:04.645Z,80.00
2017-11-09T20:19:35.007Z,80.46
2017-11-09T20:22:03.571Z,81.04
2017-11-09T20:24:32.268Z,81.50
2017-11-09T20:27:00.628Z,81.32
2017-11-09T20:29:29.987Z,82.22
2017-11-09T20:31:58.400Z,82.28
2017-11-09T20:34:26.772Z,82.00
2017-11-09T20:36:55.163Z,82.57
2017-11-09T20:39:24.295Z,82.78
2017-11-09T20:41:53.078Z,83.24
2017-11-09T20:44:23.259Z,82.81
2017-11-09T20:46:51.646Z,81.90
2017-11-09T20:49:19.998Z,81.33
2017-11-09T20:51:48.428Z,81.95
2017-11-09T20:54:17.187Z,81.50
2017-11-09T20:56:45.783Z,81.57
2017-11-09T20:59:14.174Z,81.64
2017-11-09T21:01:42.519Z,81.35
2017-11-09T21:04:10.899Z,81.48
2017-11-09T21:06:39.326Z,81.39
2017-11-09T21:09:07.678Z,82.51
2017-11-09T21:11:36.982Z,82.16
2017-11-09T21:14:05.861Z,82.91
2017-11-09T21:16:35.556Z,82.90
2017-11-09T21:19:03.929Z,81.63
2017-11-09T21:21:32.308Z,81.48
2017-11-09T21:24:00.959Z,82.56
2017-11-09T21:26:30.549Z,82.67
2017-11-09T21:28:59.911Z,83.20
2017-11-09T21:31:28.259Z,82.97
2017-11-09T21:33:57.381Z,81.99
2017-11-09T21:36:25.758Z,82.06
2017-11-09T21:38:54.325Z,81.83
2017-11-09T21:41:23.432Z,81.81
2017-11-09T21:43:53.390Z,82.62
2017-11-09T21:46:21.745Z,82.23
2017-11-09T21:48:50.742Z,81.71
2017-11-09T21:51:19.341Z,81.57
2017-11-09T21:53:48.405Z,81.34
2017-11-09T21:56:16.792Z,81.63
2017-11-09T21:58:45.781Z,80.62
2017-11-09T22:01:14.135Z,81.11
2017-11-09T22:03:43.262Z,82.18
2017-11-09T22:06:12.345Z,82.32
2017-11-09T22:08:40.950Z,81.62
2017-11-09T22:11:09.323Z,81.57
2017-11-09T22:13:37.756Z,81.82
2017-11-09T22:16:06.120Z,81.60
2017-11-09T22:18:34.493Z,81.73
2017-11-09T22:21:02.916Z,81.24
2017-11-09T22:23:32.107Z,80.59
2017-11-09T22:26:01.234Z,81.37
2017-11-09T22:28:29.620Z,81.17
2017-11-09T22:30:58.909Z,81.16
2017-11-09T22:33:28.031Z,81.16
2017-11-09T22:35:56.624Z,80.81
2017-11-09T22:38:25.795Z,81.86
2017-11-09T22:40:54.149Z,81.55
2017-11-09T22:43:23.300Z,81.92
2017-11-09T22:45:51.651Z,81.20
2017-11-09T22:48:21.386Z,81.90
2017-11-09T22:50:50.468Z,82.92
2017-11-09T22:53:20.506Z,82.43
2017-11-09T22:55:49.660Z,82.52
2017-11-09T22:58:18.106Z,81.96
2017-11-09T23:00:46.484Z,82.23
2017-11-09T23:03:15.789Z,82.21
2017-11-09T23:05:44.155Z,82.96
2017-11-09T23:08:13.348Z,83.12
2017-11-09T23:10:43.224Z,83.16
2017-11-09T23:13:11.595Z,83.25
2017-11-09T23:15:39.954Z,83.11
2017-11-09T23:18:08.980Z,83.37
2017-11-09T23:20:38.442Z,82.56
2017-11-09T23:23:07.414Z,82.77
2017-11-09T23:25:35.759Z,83.05
2017-11-09T23:28:04.138Z,82.95
2017-11-09T23:30:32.483Z,83.32
2017-11-09T23:33:01.123Z,82.80
2017-11-09T23:35:30.040Z,82.01
2017-11-09T23:37:58.430Z,81.92
2017-11-09T23:40:26.780Z,82.76
2017-11-09T23:42:56.526Z,83.05
2017-11-09T23:45:26.563Z,81.93
2017-11-09T23:47:55.986Z,80.81
2017-11-09T23:50:24.984Z,79.77
2017-11-09T23:52:54.436Z,79.83
2017-11-09T23:55:23.078Z,79.95
2017-11-09T23:57:51.764Z,80.17
